sensor_id;sensor_type;location;lat;lon;timestamp;pressure;altitude;pressure_sealevel;temperature;humidity
75855;BME280;64502;59.976;30.316;2023-04-24T00:00:07;100430.09;;;12.97;44.05
75855;BME280;64502;59.976;30.316;2023-04-24T00:02:34;100434.34;;;12.99;44.40
75855;BME280;64502;59.976;30.316;2023-04-24T00:05:03;100430.63;;;13.02;44.70
75855;BME280;64502;59.976;30.316;2023-04-24T00:07:29;100424.47;;;13.01;44.39
75855;BME280;64502;59.976;30.316;2023-04-24T00:09:55;100425.19;;;13.03;44.07
75855;BME280;64502;59.976;30.316;2023-04-24T00:12:21;100425.09;;;13.05;43.80
75855;BME280;64502;59.976;30.316;2023-04-24T00:14:46;100425.94;;;13.05;44.58
75855;BME280;64502;59.976;30.316;2023-04-24T00:17:12;100420.63;;;13.05;44.78
75855;BME280;64502;59.976;30.316;2023-04-24T00:19:38;100418.09;;;13.04;43.80
75855;BME280;64502;59.976;30.316;2023-04-24T00:22:04;100424.34;;;13.03;44.33
75855;BME280;64502;59.976;30.316;2023-04-24T00:24:29;100419.06;;;13.03;44.34
75855;BME280;64502;59.976;30.316;2023-04-24T00:26:55;100420.03;;;13.02;44.77
75855;BME280;64502;59.976;30.316;2023-04-24T00:29:20;100413.00;;;13.01;44.38
75855;BME280;64502;59.976;30.316;2023-04-24T00:31:45;100420.97;;;13.01;44.40
75855;BME280;64502;59.976;30.316;2023-04-24T00:34:11;100417.38;;;13.02;44.71
75855;BME280;64502;59.976;30.316;2023-04-24T00:36:37;100405.94;;;13.01;44.86
75855;BME280;64502;59.976;30.316;2023-04-24T00:39:03;100415.56;;;13.02;44.71
75855;BME280;64502;59.976;30.316;2023-04-24T00:41:29;100414.72;;;13.02;44.27
75855;BME280;64502;59.976;30.316;2023-04-24T00:43:54;100406.78;;;13.02;45.46
75855;BME280;64502;59.976;30.316;2023-04-24T00:46:21;100398.94;;;13.00;45.43
75855;BME280;64502;59.976;30.316;2023-04-24T00:48:46;100399.16;;;12.97;45.49
75855;BME280;64502;59.976;30.316;2023-04-24T00:51:13;100402.03;;;12.94;45.66
75855;BME280;64502;59.976;30.316;2023-04-24T00:53:39;100408.63;;;12.88;45.04
75855;BME280;64502;59.976;30.316;2023-04-24T00:56:05;100408.22;;;12.82;45.27
75855;BME280;64502;59.976;30.316;2023-04-24T00:58:31;100400.72;;;12.76;45.47
75855;BME280;64502;59.976;30.316;2023-04-24T01:00:58;100397.56;;;12.71;46.12
75855;BME280;64502;59.976;30.316;2023-04-24T01:03:29;100398.63;;;12.68;45.51
75855;BME280;64502;59.976;30.316;2023-04-24T01:05:57;100393.69;;;12.63;45.51
75855;BME280;64502;59.976;30.316;2023-04-24T01:08:24;100399.19;;;12.60;46.27
75855;BME280;64502;59.976;30.316;2023-04-24T01:10:51;100394.09;;;12.57;46.14
75855;BME280;64502;59.976;30.316;2023-04-24T01:13:18;100395.28;;;12.53;46.63
75855;BME280;64502;59.976;30.316;2023-04-24T01:15:44;100395.50;;;12.50;46.28
75855;BME280;64502;59.976;30.316;2023-04-24T01:18:10;100393.78;;;12.49;46.47
75855;BME280;64502;59.976;30.316;2023-04-24T01:20:39;100398.03;;;12.52;43.97
75855;BME280;64502;59.976;30.316;2023-04-24T01:23:06;100400.28;;;12.45;46.65
75855;BME280;64502;59.976;30.316;2023-04-24T01:25:32;100399.53;;;12.43;46.56
75855;BME280;64502;59.976;30.316;2023-04-24T01:27:58;100393.63;;;12.39;46.51
75855;BME280;64502;59.976;30.316;2023-04-24T01:30:24;100386.75;;;12.37;47.51
75855;BME280;64502;59.976;30.316;2023-04-24T01:32:50;100381.69;;;12.34;47.38
75855;BME280;64502;59.976;30.316;2023-04-24T01:35:15;100374.69;;;12.33;47.85
75855;BME280;64502;59.976;30.316;2023-04-24T01:37:41;100379.25;;;12.31;47.40
75855;BME280;64502;59.976;30.316;2023-04-24T01:40:07;100376.69;;;12.29;48.07
75855;BME280;64502;59.976;30.316;2023-04-24T01:42:32;100375.13;;;12.27;47.48
75855;BME280;64502;59.976;30.316;2023-04-24T01:44:59;100374.38;;;12.25;47.83
75855;BME280;64502;59.976;30.316;2023-04-24T01:47:25;100377.16;;;12.23;47.93
75855;BME280;64502;59.976;30.316;2023-04-24T01:49:51;100368.25;;;12.24;47.91
75855;BME280;64502;59.976;30.316;2023-04-24T01:52:16;100368.25;;;12.24;48.05
75855;BME280;64502;59.976;30.316;2023-04-24T01:54:44;100367.94;;;12.29;47.36
75855;BME280;64502;59.976;30.316;2023-04-24T01:57:10;100365.91;;;12.32;47.46
75855;BME280;64502;59.976;30.316;2023-04-24T01:59:35;100361.13;;;12.37;48.01
75855;BME280;64502;59.976;30.316;2023-04-24T02:02:02;100364.38;;;12.41;48.64
75855;BME280;64502;59.976;30.316;2023-04-24T02:04:27;100355.28;;;12.45;47.27
75855;BME280;64502;59.976;30.316;2023-04-24T02:06:53;100361.19;;;12.49;47.56
75855;BME280;64502;59.976;30.316;2023-04-24T02:09:19;100360.25;;;12.50;47.50
75855;BME280;64502;59.976;30.316;2023-04-24T02:11:44;100349.78;;;12.48;47.69
75855;BME280;64502;59.976;30.316;2023-04-24T02:14:10;100351.34;;;12.51;47.91
75855;BME280;64502;59.976;30.316;2023-04-24T02:16:35;100353.25;;;12.49;47.58
75855;BME280;64502;59.976;30.316;2023-04-24T02:19:02;100349.88;;;12.47;48.40
75855;BME280;64502;59.976;30.316;2023-04-24T02:21:27;100349.03;;;12.46;47.67
75855;BME280;64502;59.976;30.316;2023-04-24T02:23:53;100349.16;;;12.44;48.23
75855;BME280;64502;59.976;30.316;2023-04-24T02:26:19;100345.78;;;12.42;48.98
75855;BME280;64502;59.976;30.316;2023-04-24T02:28:45;100349.38;;;12.41;49.02
75855;BME280;64502;59.976;30.316;2023-04-24T02:31:10;100350.31;;;12.40;48.54
75855;BME280;64502;59.976;30.316;2023-04-24T02:33:36;100347.69;;;12.40;48.29
75855;BME280;64502;59.976;30.316;2023-04-24T02:36:02;100345.88;;;12.41;48.23
75855;BME280;64502;59.976;30.316;2023-04-24T02:38:28;100348.50;;;12.41;49.08
75855;BME280;64502;59.976;30.316;2023-04-24T02:40:54;100340.47;;;12.42;49.15
75855;BME280;64502;59.976;30.316;2023-04-24T02:43:19;100349.16;;;12.44;48.07
75855;BME280;64502;59.976;30.316;2023-04-24T02:45:45;100339.28;;;12.47;48.75
75855;BME280;64502;59.976;30.316;2023-04-24T02:48:11;100334.88;;;12.47;48.27
75855;BME280;64502;59.976;30.316;2023-04-24T02:50:36;100336.53;;;12.48;48.45
75855;BME280;64502;59.976;30.316;2023-04-24T02:53:02;100338.13;;;12.51;48.45
75855;BME280;64502;59.976;30.316;2023-04-24T02:55:27;100336.22;;;12.53;48.67
75855;BME280;64502;59.976;30.316;2023-04-24T02:57:53;100337.91;;;12.54;48.75
75855;BME280;64502;59.976;30.316;2023-04-24T03:00:19;100338.41;;;12.59;48.31
75855;BME280;64502;59.976;30.316;2023-04-24T03:02:44;100335.69;;;12.60;48.45
75855;BME280;64502;59.976;30.316;2023-04-24T03:05:10;100330.03;;;12.65;49.18
75855;BME280;64502;59.976;30.316;2023-04-24T03:07:37;100335.97;;;12.69;48.48
75855;BME280;64502;59.976;30.316;2023-04-24T03:10:03;100332.13;;;12.73;47.86
75855;BME280;64502;59.976;30.316;2023-04-24T03:12:30;100334.44;;;12.77;47.92
75855;BME280;64502;59.976;30.316;2023-04-24T03:14:56;100326.13;;;12.82;48.14
75855;BME280;64502;59.976;30.316;2023-04-24T03:17:21;100324.72;;;12.89;47.66
75855;BME280;64502;59.976;30.316;2023-04-24T03:19:47;100322.47;;;12.96;47.63
75855;BME280;64502;59.976;30.316;2023-04-24T03:22:12;100331.41;;;13.06;47.25
75855;BME280;64502;59.976;30.316;2023-04-24T03:24:38;100330.84;;;13.14;48.15
75855;BME280;64502;59.976;30.316;2023-04-24T03:27:03;100325.22;;;13.18;47.01
75855;BME280;64502;59.976;30.316;2023-04-24T03:29:29;100328.38;;;13.23;46.86
75855;BME280;64502;59.976;30.316;2023-04-24T03:31:54;100316.59;;;13.27;47.30
75855;BME280;64502;59.976;30.316;2023-04-24T03:34:20;100318.16;;;13.30;47.72
75855;BME280;64502;59.976;30.316;2023-04-24T03:36:45;100318.75;;;13.33;47.21
75855;BME280;64502;59.976;30.316;2023-04-24T03:39:13;100322.88;;;13.38;47.28
75855;BME280;64502;59.976;30.316;2023-04-24T03:41:38;100318.19;;;13.41;46.83
75855;BME280;64502;59.976;30.316;2023-04-24T03:44:04;100323.00;;;13.47;46.66
75855;BME280;64502;59.976;30.316;2023-04-24T03:46:29;100325.31;;;13.52;46.16
75855;BME280;64502;59.976;30.316;2023-04-24T03:48:55;100322.31;;;13.57;46.25
75855;BME280;64502;59.976;30.316;2023-04-24T03:51:20;100322.81;;;13.62;46.38
75855;BME280;64502;59.976;30.316;2023-04-24T03:53:45;100332.09;;;13.67;46.59
75855;BME280;64502;59.976;30.316;2023-04-24T03:56:11;100325.59;;;13.71;46.36
75855;BME280;64502;59.976;30.316;2023-04-24T03:58:36;100324.41;;;13.75;45.66
75855;BME280;64502;59.976;30.316;2023-04-24T04:01:02;100323.19;;;13.80;45.83
75855;BME280;64502;59.976;30.316;2023-04-24T04:03:28;100324.66;;;13.84;46.63
75855;BME280;64502;59.976;30.316;2023-04-24T04:05:53;100322.47;;;13.89;45.71
75855;BME280;64502;59.976;30.316;2023-04-24T04:08:19;100323.06;;;13.92;46.22
75855;BME280;64502;59.976;30.316;2023-04-24T04:10:45;100324.41;;;13.98;44.88
75855;BME280;64502;59.976;30.316;2023-04-24T04:13:10;100318.84;;;14.01;45.28
75855;BME280;64502;59.976;30.316;2023-04-24T04:15:36;100316.69;;;14.06;45.20
75855;BME280;64502;59.976;30.316;2023-04-24T04:18:01;100322.31;;;14.13;46.07
75855;BME280;64502;59.976;30.316;2023-04-24T04:20:27;100320.16;;;14.18;45.34
75855;BME280;64502;59.976;30.316;2023-04-24T04:22:53;100320.53;;;14.25;44.07
75855;BME280;64502;59.976;30.316;2023-04-24T04:25:18;100324.34;;;14.32;45.64
75855;BME280;64502;59.976;30.316;2023-04-24T04:27:45;100323.16;;;14.36;44.21
75855;BME280;64502;59.976;30.316;2023-04-24T04:30:13;100318.34;;;14.41;43.49
75855;BME280;64502;59.976;30.316;2023-04-24T04:32:39;100317.09;;;14.45;43.85
75855;BME280;64502;59.976;30.316;2023-04-24T04:35:04;100317.81;;;14.47;44.32
75855;BME280;64502;59.976;30.316;2023-04-24T04:37:31;100317.81;;;14.47;43.87
75855;BME280;64502;59.976;30.316;2023-04-24T04:39:57;100311.53;;;14.48;44.65
75855;BME280;64502;59.976;30.316;2023-04-24T04:42:26;100309.88;;;14.47;43.99
75855;BME280;64502;59.976;30.316;2023-04-24T04:44:52;100300.91;;;14.48;43.78
75855;BME280;64502;59.976;30.316;2023-04-24T04:47:20;100313.25;;;14.49;44.77
75855;BME280;64502;59.976;30.316;2023-04-24T04:49:50;100304.31;;;14.50;44.87
75855;BME280;64502;59.976;30.316;2023-04-24T04:52:18;100308.44;;;14.54;44.17
75855;BME280;64502;59.976;30.316;2023-04-24T04:54:44;100303.72;;;14.58;44.16
75855;BME280;64502;59.976;30.316;2023-04-24T04:57:10;100298.16;;;14.61;43.17
75855;BME280;64502;59.976;30.316;2023-04-24T04:59:35;100303.09;;;14.65;43.68
75855;BME280;64502;59.976;30.316;2023-04-24T05:02:02;100299.94;;;14.72;43.33
75855;BME280;64502;59.976;30.316;2023-04-24T05:04:28;100301.97;;;14.79;42.83
75855;BME280;64502;59.976;30.316;2023-04-24T05:06:53;100294.19;;;14.87;43.51
75855;BME280;64502;59.976;30.316;2023-04-24T05:09:18;100296.91;;;14.97;43.23
75855;BME280;64502;59.976;30.316;2023-04-24T05:11:44;100292.78;;;15.04;42.10
75855;BME280;64502;59.976;30.316;2023-04-24T05:14:10;100283.91;;;15.15;42.51
75855;BME280;64502;59.976;30.316;2023-04-24T05:16:35;100294.47;;;15.26;41.70
75855;BME280;64502;59.976;30.316;2023-04-24T05:19:02;100284.16;;;15.33;42.12
75855;BME280;64502;59.976;30.316;2023-04-24T05:21:27;100287.16;;;15.40;41.24
75855;BME280;64502;59.976;30.316;2023-04-24T05:23:53;100288.31;;;15.47;40.86
75855;BME280;64502;59.976;30.316;2023-04-24T05:26:18;100295.75;;;15.53;41.15
75855;BME280;64502;59.976;30.316;2023-04-24T05:28:44;100295.13;;;15.61;40.74
75855;BME280;64502;59.976;30.316;2023-04-24T05:31:09;100287.44;;;15.67;41.09
75855;BME280;64502;59.976;30.316;2023-04-24T05:33:35;100278.94;;;15.73;40.33
75855;BME280;64502;59.976;30.316;2023-04-24T05:36:01;100280.94;;;15.81;40.43
75855;BME280;64502;59.976;30.316;2023-04-24T05:38:26;100268.22;;;15.85;39.71
75855;BME280;64502;59.976;30.316;2023-04-24T05:40:51;100265.72;;;15.93;40.05
75855;BME280;64502;59.976;30.316;2023-04-24T05:43:17;100282.84;;;16.00;39.99
75855;BME280;64502;59.976;30.316;2023-04-24T05:45:42;100280.47;;;16.07;39.32
75855;BME280;64502;59.976;30.316;2023-04-24T05:48:07;100267.47;;;16.13;39.48
75855;BME280;64502;59.976;30.316;2023-04-24T05:50:33;100276.47;;;16.22;40.02
75855;BME280;64502;59.976;30.316;2023-04-24T05:52:58;100274.13;;;16.29;38.67
75855;BME280;64502;59.976;30.316;2023-04-24T05:55:25;100280.72;;;16.34;39.48
75855;BME280;64502;59.976;30.316;2023-04-24T05:57:51;100267.38;;;16.44;38.88
75855;BME280;64502;59.976;30.316;2023-04-24T06:00:16;100274.56;;;16.53;39.60
75855;BME280;64502;59.976;30.316;2023-04-24T06:02:43;100262.34;;;16.60;38.28
75855;BME280;64502;59.976;30.316;2023-04-24T06:05:09;100271.78;;;16.64;38.46
75855;BME280;64502;59.976;30.316;2023-04-24T06:07:34;100260.13;;;16.75;38.57
75855;BME280;64502;59.976;30.316;2023-04-24T06:10:00;100248.09;;;16.81;37.53
75855;BME280;64502;59.976;30.316;2023-04-24T06:12:26;100257.06;;;16.90;38.15
75855;BME280;64502;59.976;30.316;2023-04-24T06:14:52;100251.88;;;16.98;38.02
75855;BME280;64502;59.976;30.316;2023-04-24T06:17:18;100252.97;;;17.05;37.97
75855;BME280;64502;59.976;30.316;2023-04-24T06:19:43;100251.31;;;17.14;37.52
75855;BME280;64502;59.976;30.316;2023-04-24T06:22:09;100247.88;;;17.21;37.38
75855;BME280;64502;59.976;30.316;2023-04-24T06:24:35;100246.88;;;17.32;36.39
75855;BME280;64502;59.976;30.316;2023-04-24T06:27:01;100250.53;;;17.41;36.94
75855;BME280;64502;59.976;30.316;2023-04-24T06:29:27;100248.53;;;17.52;36.29
75855;BME280;64502;59.976;30.316;2023-04-24T06:31:52;100241.47;;;17.61;36.06
75855;BME280;64502;59.976;30.316;2023-04-24T06:34:18;100264.06;;;17.67;35.98
75855;BME280;64502;59.976;30.316;2023-04-24T06:36:44;100241.16;;;17.74;35.63
75855;BME280;64502;59.976;30.316;2023-04-24T06:39:09;100242.25;;;17.81;35.88
75855;BME280;64502;59.976;30.316;2023-04-24T06:41:35;100249.22;;;17.92;34.71
75855;BME280;64502;59.976;30.316;2023-04-24T06:44:00;100243.31;;;17.98;35.64
75855;BME280;64502;59.976;30.316;2023-04-24T06:46:26;100246.63;;;18.10;35.25
75855;BME280;64502;59.976;30.316;2023-04-24T06:48:53;100231.50;;;18.18;34.86
75855;BME280;64502;59.976;30.316;2023-04-24T06:51:25;100242.28;;;18.27;33.93
75855;BME280;64502;59.976;30.316;2023-04-24T06:53:54;100226.34;;;18.35;34.73
75855;BME280;64502;59.976;30.316;2023-04-24T06:56:21;100223.94;;;18.41;34.32
75855;BME280;64502;59.976;30.316;2023-04-24T06:58:47;100221.78;;;18.45;34.04
75855;BME280;64502;59.976;30.316;2023-04-24T07:01:13;100230.19;;;18.50;34.58
75855;BME280;64502;59.976;30.316;2023-04-24T07:03:39;100223.38;;;18.56;34.17
75855;BME280;64502;59.976;30.316;2023-04-24T07:06:05;100234.59;;;18.59;33.34
75855;BME280;64502;59.976;30.316;2023-04-24T07:08:30;100226.06;;;18.56;33.79
75855;BME280;64502;59.976;30.316;2023-04-24T07:10:57;100234.66;;;18.68;33.80
75855;BME280;64502;59.976;30.316;2023-04-24T07:13:23;100225.59;;;18.78;33.04
75855;BME280;64502;59.976;30.316;2023-04-24T07:15:48;100220.72;;;18.92;33.46
75855;BME280;64502;59.976;30.316;2023-04-24T07:18:20;100222.97;;;19.04;33.39
75855;BME280;64502;59.976;30.316;2023-04-24T07:20:45;100223.56;;;19.16;32.88
75855;BME280;64502;59.976;30.316;2023-04-24T07:23:11;100220.09;;;19.24;32.56
75855;BME280;64502;59.976;30.316;2023-04-24T07:25:36;100225.31;;;19.34;32.09
75855;BME280;64502;59.976;30.316;2023-04-24T07:28:02;100223.19;;;19.37;32.04
75855;BME280;64502;59.976;30.316;2023-04-24T07:30:27;100218.72;;;19.46;32.00
75855;BME280;64502;59.976;30.316;2023-04-24T07:32:55;100200.03;;;19.54;31.19
75855;BME280;64502;59.976;30.316;2023-04-24T07:35:21;100233.34;;;19.60;31.13
75855;BME280;64502;59.976;30.316;2023-04-24T07:37:47;100217.34;;;19.68;31.29
75855;BME280;64502;59.976;30.316;2023-04-24T07:40:14;100225.78;;;19.81;31.24
75855;BME280;64502;59.976;30.316;2023-04-24T07:42:40;100214.78;;;19.92;30.74
75855;BME280;64502;59.976;30.316;2023-04-24T07:45:06;100229.69;;;19.95;30.86
75855;BME280;64502;59.976;30.316;2023-04-24T07:47:32;100217.63;;;19.99;31.19
75855;BME280;64502;59.976;30.316;2023-04-24T07:49:58;100222.16;;;19.99;30.94
75855;BME280;64502;59.976;30.316;2023-04-24T07:52:24;100222.16;;;19.99;30.55
75855;BME280;64502;59.976;30.316;2023-04-24T07:54:50;100223.78;;;19.91;30.03
75855;BME280;64502;59.976;30.316;2023-04-24T07:57:17;100252.59;;;19.89;29.94
75855;BME280;64502;59.976;30.316;2023-04-24T07:59:43;100219.44;;;19.90;30.38
75855;BME280;64502;59.976;30.316;2023-04-24T08:02:09;100218.13;;;19.94;30.18
75855;BME280;64502;59.976;30.316;2023-04-24T08:04:34;100219.47;;;19.99;29.93
75855;BME280;64502;59.976;30.316;2023-04-24T08:07:00;100214.16;;;20.07;29.72
75855;BME280;64502;59.976;30.316;2023-04-24T08:09:25;100212.84;;;20.19;29.86
75855;BME280;64502;59.976;30.316;2023-04-24T08:11:51;100220.22;;;20.25;29.33
75855;BME280;64502;59.976;30.316;2023-04-24T08:14:16;100215.22;;;20.38;29.03
75855;BME280;64502;59.976;30.316;2023-04-24T08:16:42;100211.53;;;20.48;28.39
75855;BME280;64502;59.976;30.316;2023-04-24T08:19:07;100200.50;;;20.51;28.68
75855;BME280;64502;59.976;30.316;2023-04-24T08:21:33;100217.97;;;20.55;28.56
75855;BME280;64502;59.976;30.316;2023-04-24T08:23:58;100211.59;;;20.56;28.49
75855;BME280;64502;59.976;30.316;2023-04-24T08:26:24;100204.03;;;20.68;29.45
75855;BME280;64502;59.976;30.316;2023-04-24T08:28:49;100204.72;;;20.78;27.92
75855;BME280;64502;59.976;30.316;2023-04-24T08:31:15;100212.06;;;20.92;27.69
75855;BME280;64502;59.976;30.316;2023-04-24T08:33:40;100188.94;;;20.99;27.69
75855;BME280;64502;59.976;30.316;2023-04-24T08:36:06;100212.41;;;21.05;27.72
75855;BME280;64502;59.976;30.316;2023-04-24T08:38:33;100192.63;;;21.15;26.98
75855;BME280;64502;59.976;30.316;2023-04-24T08:41:00;100198.31;;;21.28;26.96
75855;BME280;64502;59.976;30.316;2023-04-24T08:43:26;100213.53;;;21.36;26.61
75855;BME280;64502;59.976;30.316;2023-04-24T08:45:55;100199.63;;;21.40;26.75
75855;BME280;64502;59.976;30.316;2023-04-24T08:48:21;100193.88;;;21.52;26.28
75855;BME280;64502;59.976;30.316;2023-04-24T08:50:48;100212.50;;;21.53;25.87
75855;BME280;64502;59.976;30.316;2023-04-24T08:53:15;100201.91;;;21.60;25.43
75855;BME280;64502;59.976;30.316;2023-04-24T08:55:41;100209.38;;;21.81;25.85
75855;BME280;64502;59.976;30.316;2023-04-24T08:58:09;100200.72;;;22.02;25.25
75855;BME280;64502;59.976;30.316;2023-04-24T09:00:34;100196.78;;;22.12;24.64
75855;BME280;64502;59.976;30.316;2023-04-24T09:03:01;100180.97;;;22.17;25.24
75855;BME280;64502;59.976;30.316;2023-04-24T09:05:30;100194.09;;;22.12;25.48
75855;BME280;64502;59.976;30.316;2023-04-24T09:07:56;100191.38;;;22.21;25.32
75855;BME280;64502;59.976;30.316;2023-04-24T09:10:23;100187.91;;;22.43;25.34
75855;BME280;64502;59.976;30.316;2023-04-24T09:12:52;100174.25;;;22.45;24.94
75855;BME280;64502;59.976;30.316;2023-04-24T09:15:19;100176.06;;;22.52;25.23
75855;BME280;64502;59.976;30.316;2023-04-24T09:17:48;100180.72;;;22.35;24.93
75855;BME280;64502;59.976;30.316;2023-04-24T09:20:13;100174.63;;;22.42;25.03
75855;BME280;64502;59.976;30.316;2023-04-24T09:22:39;100196.25;;;22.48;25.25
75855;BME280;64502;59.976;30.316;2023-04-24T09:25:08;100185.31;;;22.50;25.63
75855;BME280;64502;59.976;30.316;2023-04-24T09:27:34;100185.72;;;22.38;24.89
75855;BME280;64502;59.976;30.316;2023-04-24T09:30:00;100194.63;;;22.39;25.33
75855;BME280;64502;59.976;30.316;2023-04-24T09:32:26;100183.03;;;22.38;25.25
75855;BME280;64502;59.976;30.316;2023-04-24T09:35:13;100160.31;;;22.64;24.96
75855;BME280;64502;59.976;30.316;2023-04-24T09:37:45;100163.59;;;22.97;24.61
75855;BME280;64502;59.976;30.316;2023-04-24T09:42:43;100168.97;;;23.12;24.76
75855;BME280;64502;59.976;30.316;2023-04-24T09:45:10;100173.25;;;23.36;24.29
75855;BME280;64502;59.976;30.316;2023-04-24T09:47:39;100176.75;;;23.52;24.19
75855;BME280;64502;59.976;30.316;2023-04-24T09:52:42;100176.88;;;23.73;23.61
75855;BME280;64502;59.976;30.316;2023-04-24T09:57:50;100173.56;;;24.29;23.34
75855;BME280;64502;59.976;30.316;2023-04-24T10:00:25;100192.56;;;24.21;22.57
75855;BME280;64502;59.976;30.316;2023-04-24T10:03:02;100211.94;;;24.09;22.33
75855;BME280;64502;59.976;30.316;2023-04-24T10:05:30;100199.78;;;23.99;22.89
75855;BME280;64502;59.976;30.316;2023-04-24T10:07:57;100185.13;;;23.86;22.55
75855;BME280;64502;59.976;30.316;2023-04-24T10:10:23;100182.09;;;23.75;23.29
75855;BME280;64502;59.976;30.316;2023-04-24T10:12:49;100198.22;;;23.60;23.20
75855;BME280;64502;59.976;30.316;2023-04-24T10:15:16;100192.28;;;23.64;23.15
75855;BME280;64502;59.976;30.316;2023-04-24T10:17:47;100187.19;;;24.06;23.22
75855;BME280;64502;59.976;30.316;2023-04-24T10:20:26;100194.91;;;24.67;22.54
75855;BME280;64502;59.976;30.316;2023-04-24T10:22:53;100191.63;;;24.71;22.78
75855;BME280;64502;59.976;30.316;2023-04-24T10:25:30;100194.53;;;24.48;22.66
75855;BME280;64502;59.976;30.316;2023-04-24T10:27:57;100188.84;;;24.22;23.22
75855;BME280;64502;59.976;30.316;2023-04-24T10:30:34;100189.63;;;24.01;23.46
75855;BME280;64502;59.976;30.316;2023-04-24T10:33:03;100180.81;;;24.07;23.44
75855;BME280;64502;59.976;30.316;2023-04-24T10:35:36;100193.59;;;23.83;23.60
75855;BME280;64502;59.976;30.316;2023-04-24T10:38:08;100202.38;;;23.62;24.15
75855;BME280;64502;59.976;30.316;2023-04-24T10:40:35;100199.78;;;23.54;23.59
75855;BME280;64502;59.976;30.316;2023-04-24T10:43:08;100195.72;;;23.43;24.34
75855;BME280;64502;59.976;30.316;2023-04-24T10:45:36;100198.25;;;23.30;24.35
75855;BME280;64502;59.976;30.316;2023-04-24T10:48:04;100210.47;;;23.18;24.21
75855;BME280;64502;59.976;30.316;2023-04-24T10:50:53;100194.91;;;22.90;25.35
75855;BME280;64502;59.976;30.316;2023-04-24T10:53:20;100204.53;;;22.61;25.50
75855;BME280;64502;59.976;30.316;2023-04-24T10:55:51;100200.44;;;22.51;25.13
75855;BME280;64502;59.976;30.316;2023-04-24T10:58:21;100213.09;;;22.42;26.17
75855;BME280;64502;59.976;30.316;2023-04-24T11:00:58;100204.91;;;22.35;26.17
75855;BME280;64502;59.976;30.316;2023-04-24T11:03:29;100211.94;;;22.36;25.92
75855;BME280;64502;59.976;30.316;2023-04-24T11:06:03;100217.53;;;22.35;25.65
75855;BME280;64502;59.976;30.316;2023-04-24T11:16:44;100217.66;;;22.65;26.69
75855;BME280;64502;59.976;30.316;2023-04-24T11:19:17;100230.88;;;22.12;27.86
75855;BME280;64502;59.976;30.316;2023-04-24T11:21:45;100242.03;;;21.61;28.10
75855;BME280;64502;59.976;30.316;2023-04-24T11:27:12;100241.75;;;21.07;28.98
75855;BME280;64502;59.976;30.316;2023-04-24T11:32:14;100244.09;;;20.77;29.32
75855;BME280;64502;59.976;30.316;2023-04-24T11:34:41;100259.28;;;20.44;29.94
75855;BME280;64502;59.976;30.316;2023-04-24T11:37:06;100251.72;;;20.39;30.33
75855;BME280;64502;59.976;30.316;2023-04-24T11:39:36;100266.97;;;20.39;30.50
75855;BME280;64502;59.976;30.316;2023-04-24T11:42:03;100265.13;;;20.31;31.06
75855;BME280;64502;59.976;30.316;2023-04-24T11:44:29;100265.28;;;20.30;31.37
75855;BME280;64502;59.976;30.316;2023-04-24T11:46:56;100275.81;;;20.31;31.50
75855;BME280;64502;59.976;30.316;2023-04-24T11:49:21;100273.84;;;20.33;31.64
75855;BME280;64502;59.976;30.316;2023-04-24T11:51:47;100277.00;;;20.29;32.09
75855;BME280;64502;59.976;30.316;2023-04-24T11:54:13;100292.34;;;20.18;31.35
75855;BME280;64502;59.976;30.316;2023-04-24T11:56:38;100288.41;;;19.96;32.11
75855;BME280;64502;59.976;30.316;2023-04-24T11:59:04;100289.03;;;19.82;32.46
75855;BME280;64502;59.976;30.316;2023-04-24T12:01:29;100289.63;;;19.68;32.60
75855;BME280;64502;59.976;30.316;2023-04-24T12:03:59;100285.25;;;19.67;32.48
75855;BME280;64502;59.976;30.316;2023-04-24T12:06:25;100279.63;;;19.70;32.95
75855;BME280;64502;59.976;30.316;2023-04-24T12:08:52;100284.31;;;19.76;32.74
75855;BME280;64502;59.976;30.316;2023-04-24T12:11:20;100287.19;;;19.83;32.88
75855;BME280;64502;59.976;30.316;2023-04-24T12:13:45;100289.22;;;19.81;32.99
75855;BME280;64502;59.976;30.316;2023-04-24T12:16:11;100286.69;;;19.79;32.89
75855;BME280;64502;59.976;30.316;2023-04-24T12:18:44;100288.66;;;19.77;32.80
75855;BME280;64502;59.976;30.316;2023-04-24T12:23:44;100293.34;;;19.49;33.34
75855;BME280;64502;59.976;30.316;2023-04-24T12:26:10;100283.53;;;19.32;33.71
75855;BME280;64502;59.976;30.316;2023-04-24T12:28:37;100297.50;;;19.25;33.64
75855;BME280;64502;59.976;30.316;2023-04-24T12:31:03;100292.91;;;19.18;34.17
75855;BME280;64502;59.976;30.316;2023-04-24T12:33:32;100299.91;;;19.11;34.59
75855;BME280;64502;59.976;30.316;2023-04-24T12:35:58;100297.00;;;19.04;34.29
75855;BME280;64502;59.976;30.316;2023-04-24T12:38:26;100305.63;;;18.98;34.52
75855;BME280;64502;59.976;30.316;2023-04-24T12:41:06;100301.91;;;18.91;34.54
75855;BME280;64502;59.976;30.316;2023-04-24T12:43:31;100302.88;;;18.72;35.25
75855;BME280;64502;59.976;30.316;2023-04-24T12:45:57;100305.00;;;18.68;35.18
75855;BME280;64502;59.976;30.316;2023-04-24T12:48:22;100309.88;;;18.73;35.69
75855;BME280;64502;59.976;30.316;2023-04-24T12:50:48;100319.47;;;18.75;35.87
75855;BME280;64502;59.976;30.316;2023-04-24T12:53:14;100312.16;;;18.77;35.04
75855;BME280;64502;59.976;30.316;2023-04-24T12:55:41;100311.56;;;18.74;36.06
75855;BME280;64502;59.976;30.316;2023-04-24T12:58:07;100317.38;;;18.69;35.39
75855;BME280;64502;59.976;30.316;2023-04-24T13:00:33;100325.72;;;18.66;36.31